Time;durP1;ratioP1;P1;durP2;ratioP2;P2;SDS_P1;SDS_P2;PMS_P1;PMS_P2;Temp;Humidity;BMP_temperature;BMP_pressure;BME280_temperature;BME280_humidity;BME280_pressure;Samples;Min_cycle;Max_cycle;Signal;HPM_P1;HPM_P2
2023/07/11 00:01:39;;;;;;;8.63;4.03;;;18.80;99.90;;;;;;5056435;28;20260;-87
2023/07/11 00:04:04;;;;;;;6.07;3.35;;;18.90;99.90;;;;;;5038996;28;20271;-87
2023/07/11 00:06:30;;;;;;;5.38;3.30;;;18.90;99.90;;;;;;5057236;28;20261;-87
2023/07/11 00:08:56;;;;;;;8.75;3.35;;;18.80;99.90;;;;;;5059506;28;20221;-87
2023/07/11 00:11:21;;;;;;;5.20;2.90;;;18.70;99.90;;;;;;5060522;28;20191;-87
2023/07/11 00:13:49;;;;;;;5.25;2.97;;;18.40;99.90;;;;;;5040466;28;20214;-87
2023/07/11 00:16:16;;;;;;;6.53;3.38;;;18.20;99.90;;;;;;5056145;28;20180;-86
2023/07/11 00:18:42;;;;;;;5.47;3.80;;;18.20;99.90;;;;;;5057932;28;20173;-87
2023/07/11 00:21:08;;;;;;;5.55;3.13;;;18.20;99.90;;;;;;5057633;28;20207;-87
2023/07/11 00:23:34;;;;;;;7.43;3.13;;;18.10;99.90;;;;;;5038666;28;20250;-88
2023/07/11 00:26:00;;;;;;;4.38;2.97;;;18.10;99.90;;;;;;5055729;28;20183;-88
2023/07/11 00:28:26;;;;;;;5.10;3.33;;;18.10;99.90;;;;;;5055165;28;20538;-87
2023/07/11 00:30:52;;;;;;;3.83;2.97;;;18.10;99.90;;;;;;5054753;28;20180;-86
2023/07/11 00:33:18;;;;;;;6.55;3.42;;;18.10;99.90;;;;;;5055360;28;20187;-88
2023/07/11 00:35:46;;;;;;;3.78;3.13;;;18.20;99.90;;;;;;5054285;28;20248;-88
2023/07/11 00:38:15;;;;;;;5.10;3.28;;;18.20;99.90;;;;;;5053772;28;20172;-88
2023/07/11 00:40:45;;;;;;;5.57;3.30;;;18.10;99.90;;;;;;5054819;28;20180;-87
2023/07/11 00:43:14;;;;;;;4.75;3.13;;;18.10;99.90;;;;;;5054879;28;20222;-87
2023/07/11 00:46:12;;;;;;;6.25;3.30;;;18.30;99.90;;;;;;5060570;28;20176;-88
2023/07/11 00:49:00;;;;;;;5.18;2.72;;;18.40;99.90;;;;;;5058407;28;20382;-88
2023/07/11 00:51:34;;;;;;;6.70;2.70;;;18.30;99.90;;;;;;5054238;28;20196;-88
2023/07/11 00:54:02;;;;;;;7.28;2.65;;;18.30;99.90;;;;;;5054609;28;20183;-86
2023/07/11 00:56:32;;;;;;;4.15;2.85;;;18.30;99.90;;;;;;5054434;28;20175;-85
2023/07/11 00:58:58;;;;;;;3.85;2.47;;;18.30;99.90;;;;;;5054822;28;20172;-87
2023/07/11 01:01:25;;;;;;;5.18;2.88;;;18.30;99.90;;;;;;5052867;28;20216;-87
2023/07/11 01:03:52;;;;;;;4.68;3.03;;;18.30;99.90;;;;;;5054590;28;20191;-88
2023/07/11 01:06:22;;;;;;;4.18;2.60;;;18.30;99.90;;;;;;5069543;28;20274;-88
2023/07/11 01:08:49;;;;;;;3.97;3.00;;;18.30;99.90;;;;;;5054834;28;20257;-87
2023/07/11 01:11:16;;;;;;;5.68;2.95;;;18.30;99.90;;;;;;5053062;28;20263;-87
2023/07/11 01:13:41;;;;;;;5.53;3.05;;;18.30;99.90;;;;;;5054628;28;20259;-87
2023/07/11 01:16:07;;;;;;;4.22;2.40;;;18.30;99.90;;;;;;5054340;28;20268;-88
2023/07/11 01:18:33;;;;;;;5.03;2.97;;;18.30;99.90;;;;;;5053873;28;20647;-88
2023/07/11 01:20:59;;;;;;;3.20;2.83;;;18.30;99.90;;;;;;5052996;28;20226;-88
2023/07/11 01:23:25;;;;;;;4.93;3.17;;;18.30;99.90;;;;;;5036387;28;20184;-88
2023/07/11 01:26:01;;;;;;;5.35;2.90;;;18.30;99.90;;;;;;5053133;28;20172;-86
2023/07/11 01:28:27;;;;;;;6.43;2.90;;;18.30;99.90;;;;;;5053774;28;20179;-88
2023/07/11 01:30:53;;;;;;;4.38;3.08;;;18.30;99.90;;;;;;5054008;28;20172;-88
2023/07/11 01:33:18;;;;;;;5.78;3.33;;;18.30;99.90;;;;;;5036126;28;20275;-87
2023/07/11 01:35:44;;;;;;;4.53;3.13;;;18.30;99.90;;;;;;5052673;28;20206;-87
2023/07/11 01:38:10;;;;;;;6.80;3.42;;;18.30;99.90;;;;;;5054084;28;20183;-87
2023/07/11 01:40:35;;;;;;;4.72;2.85;;;18.20;99.90;;;;;;5052410;28;20184;-87
2023/07/11 01:43:02;;;;;;;4.55;2.38;;;18.20;99.90;;;;;;5035760;28;20603;-87
2023/07/11 01:45:28;;;;;;;2.60;2.40;;;18.20;99.90;;;;;;5053652;28;20207;-89
2023/07/11 01:47:53;;;;;;;4.68;2.80;;;18.10;99.90;;;;;;5069186;28;20204;-89
2023/07/11 01:50:19;;;;;;;6.93;3.45;;;18.10;99.90;;;;;;5068540;28;20180;-89
2023/07/11 01:52:44;;;;;;;5.63;3.13;;;18.00;99.90;;;;;;5052799;28;20667;-89
2023/07/11 01:55:10;;;;;;;6.20;2.58;;;17.90;99.90;;;;;;5036304;28;20180;-89
2023/07/11 01:57:36;;;;;;;5.47;3.05;;;17.90;99.90;;;;;;5036345;28;20191;-91
2023/07/11 02:00:03;;;;;;;3.38;3.03;;;17.80;99.90;;;;;;5056611;28;20179;-92
2023/07/11 02:02:28;;;;;;;6.03;3.83;;;17.60;99.90;;;;;;5056631;28;20211;-92
2023/07/11 02:04:54;;;;;;;11.10;3.38;;;17.50;99.90;;;;;;5054538;28;20628;-89
2023/07/11 02:07:20;;;;;;;9.50;3.67;;;17.30;99.90;;;;;;5035779;28;20629;-89
2023/07/11 02:09:46;;;;;;;5.28;3.08;;;17.20;99.90;;;;;;5053582;28;20184;-90
2023/07/11 02:12:13;;;;;;;7.40;3.70;;;17.00;99.90;;;;;;5052562;28;20184;-90
2023/07/11 02:14:40;;;;;;;6.13;4.07;;;16.90;99.90;;;;;;5035724;28;20175;-91
2023/07/11 02:17:08;;;;;;;8.05;4.45;;;16.80;99.90;;;;;;5053738;28;20191;-91
2023/07/11 02:19:34;;;;;;;5.70;3.25;;;16.80;99.90;;;;;;5035855;28;20179;-92
2023/07/11 02:21:59;;;;;;;10.57;3.78;;;16.80;99.90;;;;;;5052983;28;20306;-93
2023/07/11 02:24:25;;;;;;;5.68;3.55;;;16.90;99.90;;;;;;5052633;28;20478;-93
2023/07/11 02:26:52;;;;;;;5.03;3.30;;;16.90;99.90;;;;;;5054077;28;20176;-92
2023/07/11 02:29:18;;;;;;;3.95;3.15;;;16.80;99.90;;;;;;5053866;28;20172;-94
2023/07/11 02:31:43;;;;;;;7.65;3.03;;;16.90;99.90;;;;;;5035956;28;20192;-94
2023/07/11 02:34:09;;;;;;;5.85;3.22;;;16.90;99.90;;;;;;5053722;28;20179;-93
2023/07/11 02:36:35;;;;;;;6.00;3.63;;;16.90;99.90;;;;;;5054760;28;20259;-92
2023/07/11 02:39:01;;;;;;;4.00;2.90;;;16.80;99.90;;;;;;5054763;28;20210;-92
2023/07/11 02:41:27;;;;;;;5.72;3.08;;;16.70;99.90;;;;;;5055350;28;20231;-92
2023/07/11 02:43:53;;;;;;;6.78;3.38;;;16.70;99.90;;;;;;5054291;28;20191;-92
2023/07/11 02:46:19;;;;;;;4.85;3.25;;;16.60;99.90;;;;;;5036116;28;20179;-91
2023/07/11 02:48:45;;;;;;;4.35;3.20;;;16.60;99.90;;;;;;5052747;28;20186;-92
2023/07/11 02:51:11;;;;;;;4.25;2.72;;;16.60;99.90;;;;;;5052134;28;20179;-93
2023/07/11 02:53:37;;;;;;;4.28;3.13;;;16.50;99.90;;;;;;5032306;28;20644;-93
2023/07/11 02:56:03;;;;;;;4.05;2.75;;;16.50;99.90;;;;;;5015912;28;20219;-93
2023/07/11 02:58:29;;;;;;;5.03;3.67;;;16.50;99.90;;;;;;5013755;28;20209;-94
2023/07/11 03:00:56;;;;;;;5.20;3.40;;;16.50;99.90;;;;;;5029317;28;20180;-93
2023/07/11 03:03:22;;;;;;;5.13;2.92;;;16.50;99.90;;;;;;5015363;28;20188;-93
2023/07/11 03:05:50;;;;;;;5.40;3.38;;;16.50;99.90;;;;;;5016967;28;20181;-93
2023/07/11 03:08:16;;;;;;;4.72;3.20;;;16.40;99.90;;;;;;5018015;28;20200;-92
2023/07/11 03:10:42;;;;;;;3.60;3.15;;;16.40;99.90;;;;;;5017866;28;20169;-92
2023/07/11 03:13:08;;;;;;;4.18;2.83;;;16.30;99.90;;;;;;5017985;28;20549;-91
2023/07/11 03:15:35;;;;;;;3.63;2.83;;;16.30;99.90;;;;;;5033254;28;20588;-93
2023/07/11 03:18:01;;;;;;;8.35;3.55;;;16.30;99.90;;;;;;5037713;28;20694;-92
2023/07/11 03:20:27;;;;;;;6.43;3.40;;;16.30;99.90;;;;;;5036966;28;20176;-92
2023/07/11 03:22:52;;;;;;;6.85;3.05;;;16.30;99.90;;;;;;5039210;28;20243;-93
2023/07/11 03:25:18;;;;;;;6.97;3.22;;;16.40;99.90;;;;;;5038259;28;20173;-90
2023/07/11 03:27:44;;;;;;;4.18;3.22;;;16.40;99.90;;;;;;5036784;28;20177;-90
2023/07/11 03:30:10;;;;;;;4.88;2.92;;;16.50;99.90;;;;;;5037018;28;20188;-89
2023/07/11 03:32:36;;;;;;;4.28;2.90;;;16.50;99.90;;;;;;5036436;28;20185;-91
2023/07/11 03:35:02;;;;;;;7.13;4.10;;;16.50;99.90;;;;;;5019624;28;20183;-92
2023/07/11 03:37:28;;;;;;;5.18;3.78;;;16.60;99.90;;;;;;5035707;28;20267;-92
2023/07/11 03:39:54;;;;;;;5.10;3.40;;;16.60;99.90;;;;;;5035448;28;20709;-92
2023/07/11 03:42:19;;;;;;;5.60;3.55;;;16.60;99.90;;;;;;5036986;28;20236;-93
2023/07/11 03:44:45;;;;;;;5.30;3.42;;;16.60;99.90;;;;;;5036917;28;20234;-92
2023/07/11 03:47:11;;;;;;;5.07;3.00;;;16.50;99.90;;;;;;5036433;28;20180;-93
2023/07/11 03:49:36;;;;;;;5.30;2.72;;;16.60;99.90;;;;;;5020379;28;20260;-92
2023/07/11 03:52:03;;;;;;;3.90;2.78;;;16.60;99.90;;;;;;5017771;28;20234;-92
2023/07/11 03:54:28;;;;;;;4.53;2.90;;;16.60;99.90;;;;;;5016165;28;20269;-90
2023/07/11 03:56:54;;;;;;;3.30;2.75;;;16.60;99.90;;;;;;5017188;28;20272;-93
2023/07/11 03:59:20;;;;;;;4.57;3.40;;;16.70;99.90;;;;;;5017297;28;20178;-92
2023/07/11 04:01:46;;;;;;;5.35;3.58;;;16.70;99.90;;;;;;5017186;28;20216;-91
2023/07/11 04:04:13;;;;;;;5.18;3.00;;;16.80;99.90;;;;;;5017591;28;20288;-92
2023/07/11 04:06:38;;;;;;;4.28;3.70;;;16.80;99.90;;;;;;5017127;28;20268;-92
2023/07/11 04:09:04;;;;;;;9.65;3.35;;;16.80;99.90;;;;;;5017362;28;20256;-92
2023/07/11 04:11:30;;;;;;;3.42;2.88;;;16.80;99.90;;;;;;5016481;28;20200;-93
2023/07/11 04:13:55;;;;;;;4.07;3.22;;;16.80;99.90;;;;;;5017108;28;20181;-90
2023/07/11 04:16:21;;;;;;;4.47;3.08;;;16.80;99.90;;;;;;5016546;28;20189;-93
2023/07/11 04:18:47;;;;;;;6.57;3.38;;;16.80;99.90;;;;;;5016822;28;20622;-92
2023/07/11 04:21:13;;;;;;;4.40;3.25;;;16.90;99.90;;;;;;5018868;28;20168;-90
2023/07/11 04:23:38;;;;;;;6.60;3.63;;;16.90;99.90;;;;;;5029437;28;20217;-91
2023/07/11 04:26:04;;;;;;;3.97;3.10;;;16.80;99.90;;;;;;5029813;28;20157;-90
2023/07/11 04:28:30;;;;;;;3.72;3.20;;;16.80;99.90;;;;;;5004449;28;20630;-91
2023/07/11 04:30:56;;;;;;;6.70;2.92;;;16.80;99.90;;;;;;5016205;28;20192;-89
2023/07/11 04:33:22;;;;;;;4.18;3.05;;;16.80;99.90;;;;;;5015741;28;20185;-90
2023/07/11 04:35:47;;;;;;;4.63;3.58;;;16.80;99.90;;;;;;5016974;28;20172;-91
2023/07/11 04:38:13;;;;;;;4.22;3.13;;;16.80;99.90;;;;;;5017371;28;20204;-90
2023/07/11 04:40:39;;;;;;;3.63;2.92;;;16.80;99.90;;;;;;5000030;28;20615;-91
2023/07/11 04:43:05;;;;;;;3.88;3.35;;;16.90;99.90;;;;;;5023796;28;20316;-92
2023/07/11 04:45:32;;;;;;;5.25;3.67;;;16.90;99.90;;;;;;5027154;28;20184;-92
2023/07/11 04:47:57;;;;;;;5.32;3.20;;;16.90;99.90;;;;;;5022024;28;20209;-90
2023/07/11 04:50:23;;;;;;;5.20;3.45;;;16.90;99.90;;;;;;5016376;28;20188;-93
2023/07/11 04:52:49;;;;;;;4.53;3.58;;;16.90;99.90;;;;;;5022748;28;20200;-92
2023/07/11 04:55:15;;;;;;;7.50;3.10;;;16.90;99.90;;;;;;5025085;28;20169;-92
2023/07/11 04:57:41;;;;;;;4.20;2.90;;;16.90;99.90;;;;;;5040072;28;20759;-90
2023/07/11 05:00:07;;;;;;;6.78;4.22;;;16.90;99.90;;;;;;5052190;28;20185;-92
2023/07/11 05:02:34;;;;;;;5.35;3.45;;;17.00;99.90;;;;;;5034719;28;20208;-92
2023/07/11 05:04:59;;;;;;;4.70;3.63;;;16.90;99.90;;;;;;5036525;28;20176;-90
2023/07/11 05:07:25;;;;;;;6.38;3.40;;;17.00;99.90;;;;;;5034704;28;20189;-96
2023/07/11 05:09:51;;;;;;;4.05;3.22;;;17.00;99.90;;;;;;5036992;28;20287;-94
2023/07/11 05:12:16;;;;;;;5.95;3.67;;;17.00;99.90;;;;;;5035765;28;20193;-93
2023/07/11 05:14:42;;;;;;;4.88;3.58;;;17.00;99.90;;;;;;5051124;28;20226;-91
2023/07/11 05:17:07;;;;;;;4.00;3.35;;;17.00;99.90;;;;;;5053197;28;20236;-96
2023/07/11 05:19:33;;;;;;;6.07;3.10;;;17.00;99.90;;;;;;5037795;28;20192;-93
2023/07/11 05:22:01;;;;;;;4.20;3.30;;;16.90;99.90;;;;;;5035489;28;20201;-94
2023/07/11 05:24:29;;;;;;;4.28;3.15;;;17.00;99.90;;;;;;5034565;28;20181;-91
2023/07/11 05:26:55;;;;;;;6.75;3.58;;;17.10;99.90;;;;;;5031578;28;20260;-89
2023/07/11 05:29:20;;;;;;;4.72;3.05;;;17.30;99.90;;;;;;5034365;28;20267;-90
2023/07/11 05:31:46;;;;;;;4.32;3.28;;;17.40;99.90;;;;;;5033375;28;20215;-89
2023/07/11 05:34:12;;;;;;;4.28;2.83;;;17.40;99.90;;;;;;5035047;28;20223;-90
2023/07/11 05:36:38;;;;;;;3.67;2.65;;;17.50;99.90;;;;;;5047229;28;20548;-90
2023/07/11 05:39:12;;;;;;;3.85;2.90;;;17.40;99.90;;;;;;5049785;28;20183;-90
2023/07/11 05:41:44;;;;;;;2.42;2.20;;;17.50;99.90;;;;;;5053925;28;20239;-92
2023/07/11 05:44:11;;;;;;;5.47;2.95;;;17.40;99.90;;;;;;5051985;28;20699;-91
2023/07/11 05:46:37;;;;;;;3.65;2.60;;;17.40;99.90;;;;;;5053146;28;20176;-91
2023/07/11 05:49:04;;;;;;;3.30;2.70;;;17.30;99.90;;;;;;5037981;28;20699;-90
2023/07/11 05:51:30;;;;;;;3.42;3.10;;;17.30;99.90;;;;;;5052430;28;20671;-90
2023/07/11 05:53:56;;;;;;;3.20;2.85;;;17.30;99.90;;;;;;5052595;28;20182;-89
2023/07/11 05:56:23;;;;;;;6.07;3.45;;;17.30;99.90;;;;;;5031387;28;20214;-89
2023/07/11 05:58:51;;;;;;;4.90;3.33;;;17.40;99.90;;;;;;5024460;28;20181;-91
2023/07/11 06:01:20;;;;;;;4.80;3.75;;;17.30;99.90;;;;;;5027416;28;20671;-90
2023/07/11 06:03:47;;;;;;;4.20;3.33;;;17.60;99.90;;;;;;5034974;28;20174;-90
2023/07/11 06:06:14;;;;;;;7.03;3.42;;;17.70;99.90;;;;;;5031130;28;20208;-88
2023/07/11 06:08:41;;;;;;;4.68;3.10;;;18.10;99.90;;;;;;5031593;28;20196;-89
2023/07/11 06:11:08;;;;;;;4.45;3.40;;;18.30;99.90;;;;;;5011586;28;20545;-88
2023/07/11 06:13:39;;;;;;;6.88;3.20;;;18.50;99.90;;;;;;5027521;28;20188;-89
2023/07/11 06:16:07;;;;;;;3.63;3.15;;;18.50;99.90;;;;;;5026312;28;20185;-89
2023/07/11 06:18:34;;;;;;;4.82;3.00;;;18.80;99.90;;;;;;5031272;28;20176;-90
2023/07/11 06:21:00;;;;;;;3.55;2.67;;;19.10;99.90;;;;;;5031436;28;20347;-87
2023/07/11 06:23:26;;;;;;;4.10;3.13;;;19.30;99.90;;;;;;5028422;28;20298;-90
2023/07/11 06:25:52;;;;;;;4.40;2.83;;;19.20;99.90;;;;;;5030664;28;20180;-91
2023/07/11 06:28:17;;;;;;;3.83;2.38;;;19.10;99.90;;;;;;5024807;28;20220;-90
2023/07/11 06:30:44;;;;;;;2.42;2.15;;;19.20;99.90;;;;;;5023818;28;20276;-90
2023/07/11 06:33:17;;;;;;;3.08;2.60;;;19.30;99.90;;;;;;5046228;28;20185;-91
2023/07/11 06:35:48;;;;;;;4.88;3.58;;;19.30;99.90;;;;;;5041422;28;20184;-91
2023/07/11 06:38:14;;;;;;;6.57;3.22;;;19.20;99.90;;;;;;5046577;28;20191;-90
2023/07/11 06:40:42;;;;;;;5.18;4.05;;;19.60;99.90;;;;;;5039750;28;20172;-90
2023/07/11 06:43:11;;;;;;;5.88;3.13;;;19.80;99.90;;;;;;5049358;28;20233;-90
2023/07/11 06:45:37;;;;;;;6.35;3.03;;;19.10;99.90;;;;;;5041114;28;20185;-92
2023/07/11 06:48:02;;;;;;;2.90;2.33;;;17.20;99.90;;;;;;5037091;28;20245;-90
2023/07/11 06:50:28;;;;;;;4.65;2.50;;;19.40;99.90;;;;;;5009642;28;20184;-91
2023/07/11 06:52:54;;;;;;;6.25;2.63;;;19.30;99.90;;;;;;5024352;28;20192;-90
2023/07/11 06:55:19;;;;;;;4.65;2.50;;;19.40;99.90;;;;;;5017647;28;20212;-91
2023/07/11 06:57:50;;;;;;;2.53;2.05;;;19.60;99.90;;;;;;5011267;28;20663;-89
2023/07/11 07:00:16;;;;;;;2.83;2.25;;;19.80;99.90;;;;;;5012705;28;20185;-89
2023/07/11 07:02:42;;;;;;;6.35;2.25;;;19.90;99.90;;;;;;5013178;28;20216;-89
2023/07/11 07:05:07;;;;;;;4.90;2.45;;;19.90;99.90;;;;;;5031053;28;20200;-89
2023/07/11 07:07:33;;;;;;;3.53;2.92;;;20.20;99.90;;;;;;5023213;28;20211;-89
2023/07/11 07:10:00;;;;;;;4.45;2.55;;;20.30;99.90;;;;;;5028690;28;20180;-91
2023/07/11 07:12:26;;;;;;;4.18;2.10;;;20.60;99.90;;;;;;5019102;28;20247;-89
2023/07/11 07:14:52;;;;;;;4.35;2.47;;;20.60;99.90;;;;;;5024095;28;20668;-89
2023/07/11 07:17:17;;;;;;;4.10;2.22;;;20.60;99.90;;;;;;5010966;28;20551;-89
2023/07/11 07:19:46;;;;;;;4.90;2.25;;;20.60;99.90;;;;;;5036881;28;20211;-91
2023/07/11 07:22:15;;;;;;;1.88;1.65;;;20.70;99.90;;;;;;5022203;28;20697;-93
2023/07/11 07:24:41;;;;;;;3.55;2.40;;;20.70;99.90;;;;;;5032180;28;20212;-91
2023/07/11 07:27:06;;;;;;;3.75;1.92;;;20.90;99.90;;;;;;5041885;28;20195;-91
2023/07/11 07:29:35;;;;;;;2.55;2.03;;;21.00;99.90;;;;;;5040549;28;20188;-91
2023/07/11 07:32:03;;;;;;;2.72;1.83;;;21.00;99.90;;;;;;5026748;28;20192;-90
2023/07/11 07:34:28;;;;;;;3.03;1.92;;;21.00;99.90;;;;;;5041368;28;20181;-89
2023/07/11 07:36:54;;;;;;;2.30;1.65;;;20.80;99.90;;;;;;5033226;28;20653;-90
2023/07/11 07:39:20;;;;;;;3.70;2.30;;;20.70;99.90;;;;;;5031272;28;20176;-94
2023/07/11 07:41:46;;;;;;;3.03;1.90;;;20.50;99.90;;;;;;5018068;28;20266;-92
2023/07/11 07:44:13;;;;;;;2.97;2.10;;;20.60;99.90;;;;;;5013802;28;20509;-94
2023/07/11 07:46:39;;;;;;;4.53;2.45;;;20.70;99.90;;;;;;5032623;28;20185;-93
2023/07/11 07:49:04;;;;;;;4.38;2.00;;;20.70;99.90;;;;;;5018011;28;20197;-92
2023/07/11 07:51:30;;;;;;;3.03;1.90;;;20.80;99.90;;;;;;5044215;28;20187;-91
2023/07/11 07:53:56;;;;;;;4.03;2.35;;;20.70;99.90;;;;;;5041953;28;20818;-91
2023/07/11 07:56:23;;;;;;;3.08;2.25;;;21.00;99.90;;;;;;5048079;28;20232;-90
2023/07/11 07:58:50;;;;;;;2.45;2.25;;;20.10;99.90;;;;;;5048788;28;20240;-92
2023/07/11 08:01:20;;;;;;;3.05;2.20;;;20.20;99.90;;;;;;5039382;28;20180;-88
2023/07/11 08:03:49;;;;;;;2.65;2.38;;;20.20;99.90;;;;;;5037741;28;20235;-90
2023/07/11 08:06:16;;;;;;;4.35;2.10;;;20.20;99.90;;;;;;5046794;28;20180;-89
2023/07/11 08:08:43;;;;;;;3.88;2.45;;;20.60;99.90;;;;;;5035677;28;20189;-90
2023/07/11 08:11:09;;;;;;;11.07;2.20;;;20.30;99.90;;;;;;5030793;28;20185;-88
2023/07/11 08:13:35;;;;;;;2.63;1.90;;;20.40;99.90;;;;;;5021652;28;20181;-88
2023/07/11 08:16:03;;;;;;;2.92;1.85;;;20.40;99.90;;;;;;5053282;28;20282;-86
2023/07/11 08:18:29;;;;;;;3.70;1.90;;;20.30;99.90;;;;;;5039316;28;20180;-87
2023/07/11 08:20:55;;;;;;;6.35;3.30;;;20.20;99.90;;;;;;5016582;28;20192;-86
2023/07/11 08:23:21;;;;;;;3.65;2.28;;;20.10;99.90;;;;;;5020192;28;20221;-89
2023/07/11 08:25:54;;;;;;;1.63;1.52;;;20.20;99.90;;;;;;5019618;28;20184;-88
2023/07/11 08:28:20;;;;;;;2.63;1.80;;;20.20;99.90;;;;;;5026013;28;20695;-90
2023/07/11 08:30:46;;;;;;;1.83;1.48;;;19.90;99.90;;;;;;5019376;28;20181;-89
2023/07/11 08:33:11;;;;;;;2.40;1.80;;;20.00;99.90;;;;;;5039393;28;20633;-91
2023/07/11 08:35:37;;;;;;;2.20;1.83;;;19.80;99.90;;;;;;5039684;28;20200;-91
2023/07/11 08:38:03;;;;;;;1.65;1.20;;;19.70;99.90;;;;;;5041723;28;20271;-90
2023/07/11 08:40:33;;;;;;;2.97;1.77;;;19.60;99.90;;;;;;5026348;28;20196;-90
2023/07/11 08:43:05;;;;;;;4.13;1.77;;;19.70;99.90;;;;;;5036469;28;20331;-90
2023/07/11 08:45:37;;;;;;;4.10;1.90;;;19.50;99.90;;;;;;5025550;28;20557;-88
2023/07/11 08:48:04;;;;;;;2.08;1.80;;;19.80;99.90;;;;;;5032746;28;20189;-89
2023/07/11 08:50:45;;;;;;;1.83;1.70;;;19.40;99.90;;;;;;5029339;28;20731;-91
2023/07/11 08:53:19;;;;;;;4.20;1.92;;;19.30;99.90;;;;;;5033893;28;20199;-91
2023/07/11 08:55:49;;;;;;;4.20;1.67;;;19.20;99.90;;;;;;5031413;28;20295;-90
2023/07/11 08:58:36;;;;;;;2.85;1.98;;;19.40;99.90;;;;;;5034779;28;20215;-91
2023/07/11 09:01:12;;;;;;;3.25;2.00;;;19.70;99.90;;;;;;5018749;28;20180;-91
2023/07/11 09:03:48;;;;;;;2.88;2.08;;;19.90;99.90;;;;;;5020722;28;20196;-91
2023/07/11 09:06:20;;;;;;;2.90;2.60;;;19.50;99.90;;;;;;5041898;28;20183;-89
2023/07/11 09:08:49;;;;;;;3.28;2.33;;;19.40;99.90;;;;;;5046161;28;20195;-92
2023/07/11 09:11:27;;;;;;;3.17;2.67;;;19.20;99.90;;;;;;5038857;28;20218;-90
2023/07/11 09:14:10;;;;;;;4.00;2.40;;;19.00;99.90;;;;;;5033112;28;20667;-90
2023/07/11 09:16:42;;;;;;;4.05;2.40;;;19.10;99.90;;;;;;5065530;28;20279;-92
2023/07/11 09:19:45;;;;;;;4.13;2.03;;;19.00;99.90;;;;;;5047794;28;20195;-87
2023/07/11 09:22:36;;;;;;;2.88;1.83;;;19.00;99.90;;;;;;5028010;28;20247;-88
2023/07/11 09:25:17;;;;;;;6.95;2.38;;;19.30;99.90;;;;;;5035867;28;20184;-90
2023/07/11 09:28:01;;;;;;;2.80;2.22;;;19.10;99.90;;;;;;5030019;28;20185;-90
2023/07/11 09:30:48;;;;;;;4.82;2.53;;;19.10;99.90;;;;;;5024876;28;20177;-89
2023/07/11 09:33:18;;;;;;;2.13;1.70;;;19.40;99.90;;;;;;5020413;28;20540;-88
2023/07/11 09:35:45;;;;;;;4.50;2.53;;;19.70;99.90;;;;;;5023395;28;20193;-89
2023/07/11 09:38:23;;;;;;;7.15;2.13;;;19.80;99.90;;;;;;5045201;28;20177;-89
2023/07/11 09:40:57;;;;;;;3.08;2.03;;;19.80;99.90;;;;;;5015502;28;20196;-89
2023/07/11 09:43:22;;;;;;;3.47;2.22;;;21.80;99.90;;;;;;5021413;28;20212;-89
2023/07/11 09:45:48;;;;;;;2.72;2.00;;;19.70;99.90;;;;;;5003977;28;20308;-87
2023/07/11 09:48:23;;;;;;;2.53;1.80;;;19.60;99.90;;;;;;4996967;28;20247;-89
2023/07/11 09:51:01;;;;;;;3.50;2.20;;;19.60;99.90;;;;;;5015630;28;20259;-89
2023/07/11 09:53:28;;;;;;;2.45;2.10;;;19.60;99.90;;;;;;5027413;28;20194;-88
2023/07/11 09:55:57;;;;;;;4.25;3.17;;;19.50;99.90;;;;;;5022998;28;20192;-88
2023/07/11 09:58:26;;;;;;;2.85;2.20;;;19.60;99.90;;;;;;5015814;28;20177;-88
2023/07/11 10:00:52;;;;;;;3.20;2.20;;;19.60;99.90;;;;;;5012852;28;20192;-87
2023/07/11 10:03:24;;;;;;;2.92;2.17;;;19.80;99.90;;;;;;5031516;28;20219;-88
2023/07/11 10:05:53;;;;;;;4.10;2.10;;;19.70;99.90;;;;;;5024691;28;20177;-88
2023/07/11 10:08:27;;;;;;;2.28;2.05;;;19.80;99.90;;;;;;5023889;28;20185;-88
2023/07/11 10:10:55;;;;;;;2.38;2.08;;;19.80;99.90;;;;;;5042890;28;20178;-88
2023/07/11 10:13:22;;;;;;;2.40;2.20;;;19.80;99.90;;;;;;5039360;28;20199;-89
2023/07/11 10:15:53;;;;;;;3.05;2.25;;;20.00;99.90;;;;;;5044941;28;20184;-88
2023/07/11 10:18:23;;;;;;;3.55;2.30;;;20.20;99.90;;;;;;5020587;28;20184;-89
2023/07/11 10:20:59;;;;;;;2.58;2.13;;;20.30;99.90;;;;;;5034129;28;20181;-90
2023/07/11 10:23:26;;;;;;;3.08;2.10;;;20.30;99.90;;;;;;5027217;28;20207;-90
2023/07/11 10:26:15;;;;;;;2.13;1.73;;;20.40;99.90;;;;;;5025894;28;20172;-89
2023/07/11 10:28:43;;;;;;;3.58;2.30;;;20.50;99.90;;;;;;5022536;28;20193;-91
2023/07/11 10:31:19;;;;;;;2.17;1.98;;;20.60;99.90;;;;;;5022062;28;20180;-91
2023/07/11 10:33:51;;;;;;;1.77;1.65;;;20.60;99.90;;;;;;5022308;28;20196;-91
2023/07/11 10:36:28;;;;;;;3.13;2.28;;;20.60;99.90;;;;;;5032714;28;20652;-90
2023/07/11 10:39:05;;;;;;;3.85;2.35;;;20.70;99.90;;;;;;5036459;28;20712;-91
2023/07/11 10:42:12;;;;;;;2.58;2.08;;;20.70;99.90;;;;;;5025905;28;20239;-92
2023/07/11 10:44:46;;;;;;;2.15;1.85;;;20.60;99.90;;;;;;5012914;28;20191;-90
2023/07/11 10:47:12;;;;;;;4.00;2.15;;;20.80;99.90;;;;;;5018530;28;20185;-90
2023/07/11 10:49:44;;;;;;;3.00;2.08;;;20.80;99.90;;;;;;5023072;28;20657;-90
2023/07/11 10:52:23;;;;;;;2.80;2.00;;;21.00;99.90;;;;;;5026503;28;20185;-90
2023/07/11 10:55:16;;;;;;;3.55;1.55;;;21.10;99.90;;;;;;5023917;28;20674;-91
2023/07/11 10:57:51;;;;;;;2.30;1.98;;;21.30;99.90;;;;;;5022984;28;20207;-89
2023/07/11 11:00:45;;;;;;;3.15;1.95;;;21.30;99.90;;;;;;5019780;28;20181;-89
2023/07/11 11:03:35;;;;;;;2.45;1.80;;;22.10;99.90;;;;;;5031745;28;20212;-91
2023/07/11 11:06:32;;;;;;;2.90;1.80;;;21.70;99.90;;;;;;5012487;28;20180;-91
2023/07/11 11:09:25;;;;;;;2.00;1.80;;;21.80;99.90;;;;;;5056045;28;20219;-89
2023/07/11 11:12:28;;;;;;;1.90;1.70;;;22.10;99.90;;;;;;5019045;28;20180;-90
2023/07/11 11:15:10;;;;;;;3.55;1.90;;;22.30;99.90;;;;;;5029460;28;20207;-91
2023/07/11 11:17:49;;;;;;;2.85;1.92;;;22.40;99.90;;;;;;5010472;28;20201;-89
2023/07/11 11:20:26;;;;;;;1.92;1.60;;;22.70;99.90;;;;;;5021834;28;20177;-89
2023/07/11 11:23:17;;;;;;;3.00;1.70;;;22.70;99.90;;;;;;5014942;28;20296;-89
2023/07/11 11:26:22;;;;;;;1.83;1.67;;;22.50;98.00;;;;;;5030716;28;20653;-89
2023/07/11 11:28:54;;;;;;;2.83;1.60;;;22.10;98.10;;;;;;5041260;28;20209;-88
2023/07/11 11:31:29;;;;;;;4.28;1.30;;;21.90;99.50;;;;;;5014294;28;20192;-88
2023/07/11 11:34:13;;;;;;;1.40;1.17;;;21.90;99.30;;;;;;5021157;28;20181;-89
2023/07/11 11:36:56;;;;;;;1.45;1.15;;;21.90;96.20;;;;;;5025210;28;20193;-90
2023/07/11 11:39:22;;;;;;;1.65;1.30;;;22.20;97.00;;;;;;5047651;28;20546;-89
2023/07/11 11:41:56;;;;;;;1.40;1.20;;;22.50;95.80;;;;;;5021743;28;20228;-91
2023/07/11 11:44:31;;;;;;;1.20;1.08;;;22.90;94.00;;;;;;5014338;28;20188;-89
2023/07/11 11:46:57;;;;;;;1.25;1.15;;;23.00;90.50;;;;;;5014845;28;20184;-89
2023/07/11 11:49:25;;;;;;;2.03;1.65;;;23.00;90.50;;;;;;5007956;28;20579;-87
2023/07/11 11:51:53;;;;;;;3.50;1.02;;;23.10;88.60;;;;;;5022898;28;20188;-88
2023/07/11 11:54:22;;;;;;;1.08;0.98;;;23.10;85.50;;;;;;5032380;28;20192;-88
2023/07/11 11:56:54;;;;;;;1.25;0.95;;;23.10;79.40;;;;;;5032730;28;20189;-88
2023/07/11 11:59:23;;;;;;;0.82;0.82;;;23.10;80.20;;;;;;5015959;28;20181;-88
2023/07/11 12:01:57;;;;;;;1.65;1.10;;;23.20;78.60;;;;;;5027036;28;20236;-88
2023/07/11 12:04:29;;;;;;;1.02;1.00;;;23.30;77.30;;;;;;5021735;28;20188;-88
2023/07/11 12:07:13;;;;;;;1.77;1.38;;;23.40;81.60;;;;;;5032177;28;20259;-91
2023/07/11 12:09:56;;;;;;;1.38;1.00;;;23.40;81.00;;;;;;5060962;28;20188;-92
2023/07/11 12:12:33;;;;;;;2.70;1.60;;;23.40;80.80;;;;;;5035818;28;20283;-91
2023/07/11 12:15:14;;;;;;;1.27;1.17;;;23.60;79.60;;;;;;5025979;28;20191;-95
2023/07/11 12:17:39;;;;;;;2.38;1.80;;;23.70;79.90;;;;;;5030500;28;20192;-91
2023/07/11 12:20:09;;;;;;;2.17;1.80;;;23.90;78.80;;;;;;5016386;28;20181;-91
2023/07/11 12:22:38;;;;;;;1.38;1.20;;;24.10;77.80;;;;;;5015485;28;20239;-91
2023/07/11 12:25:06;;;;;;;1.42;1.27;;;24.00;75.10;;;;;;5015014;28;20525;-92
2023/07/11 12:27:32;;;;;;;1.13;1.02;;;23.90;77.10;;;;;;5024806;28;20239;-92
2023/07/11 12:30:13;;;;;;;3.78;1.30;;;24.10;77.80;;;;;;5033663;28;20660;-92
2023/07/11 12:32:45;;;;;;;2.78;1.55;;;24.20;77.30;;;;;;5019000;28;20224;-91
2023/07/11 12:35:14;;;;;;;3.00;1.35;;;24.40;76.80;;;;;;5033616;28;20181;-91
2023/07/11 12:37:53;;;;;;;3.65;2.28;;;24.50;74.60;;;;;;5018473;28;20200;-92
2023/07/11 12:40:31;;;;;;;3.47;1.38;;;23.80;75.30;;;;;;5027731;28;20208;-91
2023/07/11 12:43:02;;;;;;;1.45;1.35;;;24.70;75.20;;;;;;5027662;28;20235;-91
2023/07/11 12:45:37;;;;;;;5.97;1.73;;;24.50;72.90;;;;;;5034798;28;20729;-91
2023/07/11 12:48:13;;;;;;;2.58;1.13;;;24.20;85.50;;;;;;5022731;28;20242;-90
2023/07/11 12:50:48;;;;;;;2.25;1.77;;;24.00;85.00;;;;;;5028219;28;20177;-91
2023/07/11 12:53:14;;;;;;;1.35;1.20;;;;;;;;;;5030691;28;20229;-90
2023/07/11 12:55:50;;;;;;;1.75;1.33;;;24.70;87.90;;;;;;5018484;28;20187;-92
2023/07/11 12:58:26;;;;;;;2.08;1.30;;;24.70;90.00;;;;;;5036798;28;20184;-90
2023/07/11 13:00:54;;;;;;;1.42;1.30;;;24.50;72.50;;;;;;5037682;28;20234;-92